createdAt,value
2018-08-22T00:00:31.878Z,67.20
2018-08-22T00:03:00.882Z,66.90
2018-08-22T00:05:29.926Z,67.00
2018-08-22T00:07:59.192Z,67.40
2018-08-22T00:10:28.236Z,67.60
2018-08-22T00:12:57.242Z,67.90
2018-08-22T00:15:25.810Z,67.40
2018-08-22T00:17:54.889Z,67.90
2018-08-22T00:20:23.903Z,67.00
2018-08-22T00:22:53.027Z,67.70
2018-08-22T00:25:22.100Z,68.00
2018-08-22T00:27:51.273Z,68.40
2018-08-22T00:30:20.328Z,68.30
2018-08-22T00:32:49.986Z,68.50
2018-08-22T00:35:19.022Z,67.80
2018-08-22T00:37:47.978Z,68.20
2018-08-22T00:40:17.008Z,68.40
2018-08-22T00:42:46.074Z,68.60
2018-08-22T00:45:15.188Z,68.40
2018-08-22T00:47:44.346Z,68.20
2018-08-22T00:50:13.448Z,68.50
2018-08-22T00:52:42.884Z,69.20
2018-08-22T00:55:11.914Z,69.40
2018-08-22T00:57:40.924Z,69.30
2018-08-22T01:00:10.127Z,69.40
2018-08-22T01:02:39.203Z,69.90
2018-08-22T01:05:07.769Z,70.00
2018-08-22T01:07:36.245Z,69.70
2018-08-22T01:10:05.314Z,69.70
2018-08-22T01:12:33.817Z,69.50
2018-08-22T01:15:02.277Z,70.00
2018-08-22T01:17:30.724Z,70.30
2018-08-22T01:19:59.185Z,70.00
2018-08-22T01:22:27.657Z,70.30
2018-08-22T01:24:56.377Z,70.50
2018-08-22T01:27:25.337Z,70.50
2018-08-22T01:29:55.105Z,70.70
2018-08-22T01:32:24.119Z,69.90
2018-08-22T01:34:53.463Z,70.20
2018-08-22T01:37:22.410Z,70.80
2018-08-22T01:39:50.903Z,70.90
2018-08-22T01:42:19.518Z,71.10
2018-08-22T01:44:48.628Z,71.40
2018-08-22T01:47:17.891Z,71.90
2018-08-22T01:49:46.326Z,72.10
2018-08-22T01:52:14.836Z,72.10
2018-08-22T01:54:43.815Z,72.50
2018-08-22T01:57:12.850Z,72.70
2018-08-22T01:59:41.285Z,72.50
2018-08-22T02:02:09.721Z,72.70
2018-08-22T02:04:38.843Z,73.00
2018-08-22T02:07:07.305Z,72.40
2018-08-22T02:09:36.389Z,72.40
2018-08-22T02:12:05.003Z,72.90
2018-08-22T02:14:33.420Z,73.20
2018-08-22T02:17:02.509Z,73.70
2018-08-22T02:19:30.978Z,74.00
2018-08-22T02:21:59.436Z,74.80
2018-08-22T02:24:27.915Z,75.00
2018-08-22T02:26:56.388Z,75.20
2018-08-22T02:29:24.794Z,75.20
2018-08-22T02:31:53.228Z,75.40
2018-08-22T02:34:21.734Z,76.00
2018-08-22T02:36:51.008Z,76.10
2018-08-22T02:39:19.472Z,76.30
2018-08-22T02:41:48.009Z,76.00
2018-08-22T02:44:16.577Z,75.80
2018-08-22T02:46:45.017Z,75.70
2018-08-22T02:49:13.528Z,75.80
2018-08-22T02:51:42.531Z,75.80
2018-08-22T02:54:11.051Z,75.90
2018-08-22T02:56:39.700Z,75.70
2018-08-22T02:59:08.101Z,75.80
2018-08-22T03:01:36.656Z,75.90
2018-08-22T03:04:05.650Z,75.70
2018-08-22T03:06:34.132Z,76.50
2018-08-22T03:09:02.606Z,75.80
2018-08-22T03:11:31.091Z,76.00
2018-08-22T03:14:00.074Z,75.80
2018-08-22T03:16:28.667Z,75.90
2018-08-22T03:18:57.757Z,75.90
2018-08-22T03:21:26.349Z,76.00
2018-08-22T03:23:55.006Z,76.00
2018-08-22T03:26:23.656Z,76.20
2018-08-22T03:28:52.910Z,76.50
2018-08-22T03:31:21.415Z,77.00
2018-08-22T03:33:50.019Z,77.20
2018-08-22T03:36:18.467Z,77.00
2018-08-22T03:38:46.882Z,77.00
2018-08-22T03:41:15.410Z,77.30
2018-08-22T03:43:44.174Z,77.50
2018-08-22T03:46:13.166Z,77.60
2018-08-22T03:48:41.749Z,77.70
2018-08-22T03:51:10.190Z,78.00
2018-08-22T03:53:38.700Z,78.10
2018-08-22T03:56:07.243Z,78.20
2018-08-22T03:58:35.798Z,78.00
2018-08-22T04:01:04.253Z,77.80
2018-08-22T04:03:32.763Z,77.80
2018-08-22T04:06:01.244Z,77.80
2018-08-22T04:08:29.687Z,77.80
2018-08-22T04:10:58.147Z,78.20
2018-08-22T04:13:26.575Z,77.80
2018-08-22T04:15:55.088Z,78.60
2018-08-22T04:18:23.595Z,78.60
2018-08-22T04:20:52.120Z,78.60
2018-08-22T04:23:20.580Z,78.40
2018-08-22T04:25:49.040Z,78.30
2018-08-22T04:28:17.559Z,78.00
2018-08-22T04:30:45.971Z,78.60
2018-08-22T04:33:14.419Z,77.80
2018-08-22T04:35:42.859Z,77.80
2018-08-22T04:38:11.379Z,77.60
2018-08-22T04:40:39.805Z,77.80
2018-08-22T04:43:08.304Z,78.00
2018-08-22T04:45:36.920Z,78.10
2018-08-22T04:48:05.412Z,78.30
2018-08-22T04:50:34.087Z,78.20
2018-08-22T04:53:02.540Z,78.50
2018-08-22T04:55:30.994Z,78.70
2018-08-22T04:57:59.454Z,78.60
2018-08-22T05:00:28.010Z,78.40
2018-08-22T05:02:56.496Z,78.50
2018-08-22T05:05:25.059Z,78.50
2018-08-22T05:07:53.544Z,78.40
2018-08-22T05:10:21.973Z,78.60
2018-08-22T05:12:50.422Z,78.20
2018-08-22T05:15:18.909Z,78.10
2018-08-22T05:17:47.334Z,78.10
2018-08-22T05:20:15.814Z,78.00
2018-08-22T05:22:44.270Z,78.10
2018-08-22T05:25:12.736Z,77.80
2018-08-22T05:27:41.803Z,77.60
2018-08-22T05:30:10.884Z,77.50
2018-08-22T05:32:39.446Z,77.50
2018-08-22T05:35:07.960Z,77.40
2018-08-22T05:37:36.445Z,77.60
2018-08-22T05:40:04.897Z,77.50
2018-08-22T05:42:33.399Z,77.50
2018-08-22T05:45:01.923Z,77.80
2018-08-22T05:47:30.987Z,78.00
2018-08-22T05:49:59.562Z,78.00
2018-08-22T05:52:27.971Z,77.80
2018-08-22T05:54:56.428Z,77.70
2018-08-22T05:57:24.932Z,77.20
2018-08-22T05:59:53.582Z,77.00
2018-08-22T06:02:22.062Z,76.70
2018-08-22T06:04:50.560Z,76.70
2018-08-22T06:07:19.141Z,76.60
2018-08-22T06:09:47.707Z,76.10
2018-08-22T06:12:16.144Z,76.20
2018-08-22T06:14:44.679Z,76.20
2018-08-22T06:17:13.132Z,75.70
2018-08-22T06:19:41.643Z,75.20
2018-08-22T06:22:10.111Z,74.70
2018-08-22T06:24:38.797Z,74.60
2018-08-22T06:27:07.275Z,74.40
2018-08-22T06:29:36.335Z,74.30
2018-08-22T06:32:04.807Z,73.80
2018-08-22T06:34:33.275Z,73.50
2018-08-22T06:37:01.918Z,73.40
2018-08-22T06:39:30.379Z,73.40
2018-08-22T06:41:59.419Z,72.50
2018-08-22T06:44:27.875Z,72.00
2018-08-22T06:46:56.956Z,71.60
2018-08-22T06:49:25.410Z,71.40
2018-08-22T06:51:54.021Z,70.90
2018-08-22T06:54:22.472Z,70.90
2018-08-22T06:56:51.580Z,70.30
2018-08-22T06:59:20.662Z,70.10
2018-08-22T07:01:49.786Z,69.80
2018-08-22T07:04:18.884Z,69.60
2018-08-22T07:06:47.875Z,69.60
2018-08-22T07:09:17.071Z,68.70
2018-08-22T07:11:46.057Z,68.30
2018-08-22T07:14:15.128Z,67.30
2018-08-22T07:16:44.255Z,66.60
2018-08-22T07:19:13.609Z,66.10
2018-08-22T07:21:42.793Z,65.80
2018-08-22T07:24:11.847Z,66.10
2018-08-22T07:26:40.894Z,65.50
2018-08-22T07:29:10.065Z,64.00
2018-08-22T07:31:39.070Z,63.80
2018-08-22T07:34:08.131Z,63.60
2018-08-22T07:36:37.126Z,63.50
2018-08-22T07:39:09.379Z,63.40
2018-08-22T07:41:38.428Z,63.50
2018-08-22T07:44:08.155Z,62.80
2018-08-22T07:46:37.280Z,62.20
2018-08-22T07:49:06.353Z,62.20
2018-08-22T07:51:35.398Z,61.80
2018-08-22T07:54:04.460Z,61.20
2018-08-22T07:56:33.556Z,60.70
2018-08-22T07:59:11.948Z,60.50
2018-08-22T08:01:41.080Z,60.30
2018-08-22T08:04:12.398Z,59.80
2018-08-22T08:06:41.914Z,59.10
2018-08-22T08:09:13.343Z,59.00
2018-08-22T08:11:42.557Z,59.00
2018-08-22T08:14:11.761Z,58.20
2018-08-22T08:16:41.030Z,58.20
2018-08-22T08:19:10.006Z,57.80
2018-08-22T08:21:39.141Z,57.20
2018-08-22T08:24:08.457Z,57.50
2018-08-22T08:26:37.492Z,57.30
2018-08-22T08:29:13.296Z,56.90
2018-08-22T08:31:42.372Z,56.90
2018-08-22T08:34:11.476Z,56.60
2018-08-22T08:36:40.616Z,56.70
2018-08-22T08:39:10.797Z,55.70
2018-08-22T08:41:40.030Z,55.50
2018-08-22T08:44:15.890Z,55.20
2018-08-22T08:46:45.071Z,55.40
2018-08-22T08:49:14.146Z,55.50
2018-08-22T08:51:54.827Z,55.30
2018-08-22T08:54:23.966Z,54.50
2018-08-22T08:56:53.130Z,54.30
2018-08-22T08:59:22.372Z,53.70
2018-08-22T09:01:51.492Z,53.40
2018-08-22T09:04:20.658Z,53.90
2018-08-22T09:06:50.108Z,54.00
2018-08-22T09:09:19.250Z,53.10
2018-08-22T09:11:54.380Z,53.80
2018-08-22T09:14:23.554Z,56.00
2018-08-22T09:16:52.626Z,57.10
2018-08-22T09:19:21.724Z,54.20
2018-08-22T09:21:50.766Z,53.10
2018-08-22T09:24:19.798Z,53.30
2018-08-22T09:26:48.957Z,53.30
2018-08-22T09:29:18.023Z,52.90
2018-08-22T09:31:47.008Z,52.80
2018-08-22T09:34:16.010Z,51.50
2018-08-22T09:36:45.030Z,51.80
2018-08-22T09:39:14.483Z,51.30
2018-08-22T09:41:43.776Z,51.80
2018-08-22T09:44:13.000Z,51.50
2018-08-22T09:46:42.220Z,51.30
2018-08-22T09:49:11.416Z,51.20
2018-08-22T09:51:40.378Z,51.50
2018-08-22T09:54:09.620Z,51.10
2018-08-22T09:56:38.608Z,50.00
2018-08-22T09:59:07.613Z,51.00
2018-08-22T10:01:41.710Z,50.80
2018-08-22T10:04:10.850Z,50.10
2018-08-22T10:06:41.278Z,49.60
2018-08-22T10:09:12.737Z,49.80
2018-08-22T10:11:41.840Z,50.20
2018-08-22T10:14:10.995Z,49.90
2018-08-22T10:16:39.990Z,48.80
2018-08-22T10:19:09.036Z,47.60
2018-08-22T10:21:38.014Z,46.80
2018-08-22T10:24:07.192Z,48.30
2018-08-22T10:26:36.273Z,49.20
2018-08-22T10:29:05.640Z,49.60
2018-08-22T10:31:34.716Z,46.70
2018-08-22T10:34:03.692Z,47.40
2018-08-22T10:36:32.756Z,46.40
2018-08-22T10:39:01.751Z,44.60
2018-08-22T10:41:30.736Z,46.00
2018-08-22T10:43:59.762Z,46.10
2018-08-22T10:46:28.782Z,45.50
2018-08-22T10:48:57.738Z,45.80
2018-08-22T10:51:26.804Z,46.20
2018-08-22T10:53:55.940Z,46.80
2018-08-22T10:56:25.084Z,46.30
2018-08-22T10:58:54.227Z,47.40
2018-08-22T11:01:23.241Z,47.50
2018-08-22T11:03:52.456Z,46.90
2018-08-22T11:06:21.439Z,46.80
2018-08-22T11:08:50.517Z,46.70
2018-08-22T11:11:19.631Z,47.50
2018-08-22T11:13:48.656Z,45.70
2018-08-22T11:16:17.603Z,45.90
2018-08-22T11:18:46.603Z,47.20
2018-08-22T11:21:26.800Z,47.20
2018-08-22T11:26:28.551Z,45.80
2018-08-22T11:29:08.885Z,46.60
2018-08-22T11:31:49.291Z,46.50
2018-08-22T11:34:29.744Z,46.60
2018-08-22T11:37:00.413Z,47.30
2018-08-22T11:39:29.596Z,46.60
2018-08-22T11:41:58.748Z,45.20
2018-08-22T11:44:27.778Z,45.80
2018-08-22T11:46:56.766Z,46.10
2018-08-22T11:49:25.801Z,44.30
2018-08-22T11:51:54.891Z,44.00
2018-08-22T11:54:24.095Z,45.40
2018-08-22T11:56:53.070Z,44.40
2018-08-22T11:59:22.039Z,44.80
2018-08-22T12:01:51.393Z,43.30
2018-08-22T12:04:20.910Z,44.30
2018-08-22T12:06:50.271Z,44.00
2018-08-22T12:09:19.311Z,44.40
2018-08-22T12:11:48.384Z,42.30
2018-08-22T12:14:17.477Z,42.40
2018-08-22T12:16:46.461Z,41.90
2018-08-22T12:19:15.487Z,41.80
2018-08-22T12:21:44.535Z,41.20
2018-08-22T12:24:13.555Z,41.70
2018-08-22T12:26:42.611Z,40.50
2018-08-22T12:29:12.027Z,40.00
2018-08-22T12:31:41.078Z,39.20
2018-08-22T12:34:10.037Z,40.50
2018-08-22T12:36:39.042Z,39.80
2018-08-22T12:39:08.229Z,39.80
2018-08-22T12:41:37.326Z,39.40
2018-08-22T12:44:06.346Z,39.50
2018-08-22T12:46:35.438Z,38.80
2018-08-22T12:49:04.445Z,38.10
2018-08-22T12:51:33.494Z,38.90
2018-08-22T12:54:02.542Z,38.50
2018-08-22T12:56:31.596Z,38.00
2018-08-22T12:59:00.666Z,36.80
2018-08-22T13:01:29.682Z,37.40
2018-08-22T13:03:58.764Z,37.30
2018-08-22T13:06:27.730Z,36.60
2018-08-22T13:08:56.779Z,37.00
2018-08-22T13:11:26.104Z,36.50
2018-08-22T13:13:55.273Z,35.60
2018-08-22T13:16:24.240Z,36.30
2018-08-22T13:18:53.295Z,36.50
2018-08-22T13:21:22.270Z,36.50
2018-08-22T13:23:51.221Z,35.00
2018-08-22T13:26:20.211Z,34.80
2018-08-22T13:28:49.159Z,35.20
2018-08-22T13:31:18.235Z,34.90
2018-08-22T13:33:47.301Z,34.60
2018-08-22T13:36:16.323Z,34.00
2018-08-22T13:38:45.526Z,33.00
2018-08-22T13:41:14.514Z,33.10
2018-08-22T13:43:43.648Z,32.80
2018-08-22T13:46:12.610Z,33.10
2018-08-22T13:48:41.688Z,32.20
2018-08-22T13:51:10.652Z,31.90
2018-08-22T13:53:39.717Z,32.30
2018-08-22T13:56:08.797Z,31.30
2018-08-22T13:58:38.092Z,31.30
2018-08-22T14:01:07.246Z,30.90
2018-08-22T14:03:36.236Z,30.90
2018-08-22T14:06:05.294Z,31.10
2018-08-22T14:08:34.294Z,30.40
2018-08-22T14:11:03.490Z,30.60
2018-08-22T14:13:32.482Z,30.00
2018-08-22T14:16:01.658Z,29.50
2018-08-22T14:18:30.715Z,30.00
2018-08-22T14:20:59.744Z,29.70
2018-08-22T14:23:28.754Z,29.30
2018-08-22T14:25:57.764Z,29.00
2018-08-22T14:28:26.784Z,28.70
2018-08-22T14:30:55.791Z,28.40
2018-08-22T14:33:24.744Z,29.20
2018-08-22T14:35:53.757Z,29.10
2018-08-22T14:38:22.759Z,28.80
2018-08-22T14:40:51.744Z,29.00
2018-08-22T14:43:20.871Z,28.10
2018-08-22T14:45:49.830Z,28.40
2018-08-22T14:48:18.807Z,27.90
2018-08-22T14:50:47.842Z,28.00
2018-08-22T14:53:16.802Z,28.80
2018-08-22T14:55:45.955Z,29.00
2018-08-22T14:58:15.045Z,29.20
2018-08-22T15:00:44.058Z,28.70
2018-08-22T15:03:13.301Z,27.90
2018-08-22T15:05:42.218Z,27.60
2018-08-22T15:08:11.216Z,25.70
2018-08-22T15:10:40.228Z,24.30
2018-08-22T15:13:09.306Z,23.00
2018-08-22T15:15:38.498Z,21.40
2018-08-22T15:18:07.479Z,22.00
2018-08-22T15:20:36.538Z,22.90
2018-08-22T15:23:05.710Z,23.50
2018-08-22T15:25:34.890Z,25.30
2018-08-22T15:28:03.926Z,26.20
2018-08-22T15:30:32.898Z,26.50
2018-08-22T15:33:01.884Z,26.80
2018-08-22T15:35:30.844Z,26.00
2018-08-22T15:37:59.845Z,27.10
2018-08-22T15:40:29.115Z,27.70
2018-08-22T15:42:58.337Z,28.30
2018-08-22T15:45:27.484Z,29.10
2018-08-22T15:47:56.494Z,30.00
2018-08-22T15:50:25.538Z,30.50
2018-08-22T15:52:54.588Z,31.10
2018-08-22T15:55:23.726Z,30.60
2018-08-22T15:57:57.314Z,30.90
2018-08-22T16:00:38.696Z,32.10
2018-08-22T16:03:08.740Z,32.90
2018-08-22T16:05:38.630Z,33.80
2018-08-22T16:08:08.048Z,33.30
2018-08-22T16:10:37.066Z,34.30
2018-08-22T16:13:09.910Z,34.20
2018-08-22T16:15:38.919Z,34.80
2018-08-22T16:18:09.150Z,35.00
2018-08-22T16:20:46.941Z,35.10
2018-08-22T16:23:15.988Z,35.30
2018-08-22T16:25:46.554Z,35.40
2018-08-22T16:28:15.600Z,36.00
2018-08-22T16:30:56.691Z,35.90
2018-08-22T16:33:14.177Z,36.30
2018-08-22T16:35:43.183Z,36.90
2018-08-22T16:38:13.289Z,36.20
2018-08-22T16:40:43.626Z,36.40
2018-08-22T16:43:12.635Z,35.80
2018-08-22T16:45:46.994Z,36.30
2018-08-22T16:48:18.989Z,36.40
2018-08-22T16:50:48.599Z,36.90
2018-08-22T16:53:17.585Z,37.30
2018-08-22T16:55:47.783Z,37.20
2018-08-22T16:58:19.887Z,37.20
2018-08-22T17:00:50.100Z,37.20
2018-08-22T17:03:19.211Z,37.40
2018-08-22T17:05:48.395Z,37.30
2018-08-22T17:08:17.385Z,38.40
2018-08-22T17:10:57.462Z,37.80
2018-08-22T17:13:33.783Z,38.30
2018-08-22T17:16:02.772Z,37.90
2018-08-22T17:18:31.992Z,39.10
2018-08-22T17:21:01.160Z,39.50
2018-08-22T17:23:30.219Z,39.30
2018-08-22T17:25:59.484Z,39.50
2018-08-22T17:28:34.715Z,39.10
2018-08-22T17:31:03.945Z,39.90
2018-08-22T17:33:42.501Z,39.50
2018-08-22T17:36:12.432Z,40.00
2018-08-22T17:38:44.450Z,41.30
2018-08-22T17:41:13.819Z,42.10
2018-08-22T17:43:55.963Z,42.00
2018-08-22T17:46:28.838Z,42.00
2018-08-22T17:48:58.206Z,41.70
2018-08-22T17:51:27.399Z,42.20
2018-08-22T17:53:56.558Z,43.00
2018-08-22T17:56:27.279Z,41.70
2018-08-22T17:58:57.224Z,42.30
2018-08-22T18:01:26.257Z,42.30
2018-08-22T18:03:56.594Z,42.70
2018-08-22T18:06:26.054Z,42.20
2018-08-22T18:08:55.388Z,43.10
2018-08-22T18:11:25.494Z,42.90
2018-08-22T18:13:57.675Z,44.20
2018-08-22T18:16:27.138Z,43.20
2018-08-22T18:18:56.128Z,43.40
2018-08-22T18:21:31.633Z,45.00
2018-08-22T18:24:00.798Z,44.60
2018-08-22T18:26:29.927Z,44.40
2018-08-22T18:28:59.053Z,45.00
2018-08-22T18:31:28.099Z,45.60
2018-08-22T18:33:58.868Z,44.80
2018-08-22T18:36:28.955Z,45.80
2018-08-22T18:39:06.811Z,46.20
2018-08-22T22:31:48.362Z,59.50
2018-08-22T22:34:17.416Z,61.10
2018-08-22T22:36:46.450Z,61.40
2018-08-22T22:39:46.995Z,62.20
2018-08-22T22:42:21.333Z,62.90
2018-08-22T22:44:51.761Z,63.20
2018-08-22T22:47:27.499Z,63.90
2018-08-22T22:49:57.092Z,64.50
2018-08-22T22:52:29.595Z,64.80
2018-08-22T22:54:59.907Z,64.70
2018-08-22T22:57:30.783Z,64.40
2018-08-22T23:00:00.435Z,64.00
2018-08-22T23:02:30.499Z,64.10
2018-08-22T23:05:00.175Z,64.10
2018-08-22T23:07:31.227Z,64.10
2018-08-22T23:10:03.592Z,64.20
2018-08-22T23:12:48.280Z,64.30
2018-08-22T23:15:24.979Z,64.20
2018-08-22T23:17:55.764Z,64.60
2018-08-22T23:20:30.534Z,64.80
2018-08-22T23:22:59.647Z,65.00
2018-08-22T23:25:29.001Z,65.10
2018-08-22T23:27:58.221Z,65.50
2018-08-22T23:30:31.662Z,65.80
2018-08-22T23:33:00.772Z,66.10
2018-08-22T23:35:32.186Z,66.60
2018-08-22T23:38:02.590Z,67.10
2018-08-22T23:40:33.586Z,67.00
2018-08-22T23:43:02.595Z,66.60
2018-08-22T23:45:31.704Z,66.30
2018-08-22T23:48:00.728Z,67.30
2018-08-22T23:50:48.486Z,66.90
2018-08-22T23:53:17.689Z,67.40
2018-08-22T23:55:46.719Z,67.60
2018-08-22T23:58:15.789Z,67.50
